createdAt,value
2019-06-26T00:00:45.849Z,83.06
2019-06-26T00:01:45.869Z,83.21
2019-06-26T00:02:45.892Z,83.15
2019-06-26T00:03:45.897Z,83.01
2019-06-26T00:04:45.922Z,83.11
2019-06-26T00:05:45.917Z,83.31
2019-06-26T00:06:45.939Z,82.62
2019-06-26T00:07:45.958Z,83.01
2019-06-26T00:08:45.964Z,83.11
2019-06-26T00:09:45.977Z,82.62
2019-06-26T00:10:45.993Z,82.82
2019-06-26T00:11:46.008Z,82.62
2019-06-26T00:12:46.018Z,82.82
2019-06-26T00:13:46.042Z,82.72
2019-06-26T00:14:46.056Z,83.21
2019-06-26T00:15:46.149Z,83.11
2019-06-26T00:16:46.086Z,83.11
2019-06-26T00:17:46.094Z,82.92
2019-06-26T00:18:46.111Z,83.11
2019-06-26T00:19:46.118Z,82.82
2019-06-26T00:20:46.130Z,82.82
2019-06-26T00:21:46.148Z,82.92
2019-06-26T00:22:46.161Z,83.01
2019-06-26T00:23:46.564Z,83.11
2019-06-26T00:24:46.190Z,83.21
2019-06-26T00:25:46.204Z,83.17
2019-06-26T00:26:46.212Z,83.07
2019-06-26T00:27:46.231Z,83.17
2019-06-26T00:28:46.249Z,83.46
2019-06-26T00:29:46.261Z,83.95
2019-06-26T00:30:46.356Z,83.85
2019-06-26T00:31:46.293Z,83.56
2019-06-26T00:32:46.305Z,83.65
2019-06-26T00:33:46.318Z,83.75
2019-06-26T00:34:46.327Z,83.75
2019-06-26T00:35:46.340Z,84.43
2019-06-26T00:36:46.359Z,84.14
2019-06-26T00:37:46.368Z,84.82
2019-06-26T00:38:46.384Z,84.53
2019-06-26T00:39:46.406Z,84.33
2019-06-26T00:40:46.477Z,85.02
2019-06-26T00:41:46.425Z,84.82
2019-06-26T00:42:46.447Z,84.92
2019-06-26T00:43:46.455Z,85.02
2019-06-26T00:44:46.467Z,85.21
2019-06-26T00:45:46.483Z,85.02
2019-06-26T00:46:46.499Z,85.11
2019-06-26T00:47:46.520Z,85.21
2019-06-26T00:48:46.526Z,85.02
2019-06-26T00:49:46.535Z,85.41
2019-06-26T00:50:46.550Z,85.46
2019-06-26T00:51:46.589Z,86.04
2019-06-26T00:52:46.573Z,85.85
2019-06-26T00:53:46.591Z,85.94
2019-06-26T00:54:46.614Z,85.56
2019-06-26T00:55:46.623Z,85.94
2019-06-26T00:56:46.634Z,86.53
2019-06-26T00:57:46.649Z,86.33
2019-06-26T00:58:46.674Z,86.33
2019-06-26T00:59:46.675Z,86.43
2019-06-26T01:00:46.690Z,86.63
2019-06-26T01:01:46.713Z,86.53
2019-06-26T01:02:46.719Z,86.43
2019-06-26T01:03:46.736Z,87.21
2019-06-26T01:04:46.742Z,86.92
2019-06-26T01:05:46.767Z,87.12
2019-06-26T01:06:46.774Z,87.21
2019-06-26T01:07:46.790Z,87.02
2019-06-26T01:08:46.835Z,87.02
2019-06-26T01:09:46.816Z,86.78
2019-06-26T01:10:46.828Z,87.16
2019-06-26T01:11:46.848Z,87.26
2019-06-26T01:12:46.850Z,87.07
2019-06-26T01:13:57.795Z,87.85
2019-06-26T01:14:46.883Z,87.36
2019-06-26T01:15:46.894Z,87.55
2019-06-26T01:16:46.911Z,87.55
2019-06-26T01:17:46.935Z,87.55
2019-06-26T01:18:46.940Z,87.75
2019-06-26T01:19:46.953Z,88.33
2019-06-26T01:20:46.962Z,88.14
2019-06-26T01:21:46.988Z,87.95
2019-06-26T01:22:46.995Z,88.04
2019-06-26T01:23:47.081Z,88.24
2019-06-26T01:24:47.028Z,88.62
2019-06-26T01:25:47.027Z,88.14
2019-06-26T01:26:47.045Z,88.24
2019-06-26T01:27:47.062Z,88.72
2019-06-26T01:28:47.074Z,88.82
2019-06-26T01:29:47.087Z,88.39
2019-06-26T01:30:47.109Z,88.72
2019-06-26T01:31:47.112Z,88.33
2019-06-26T01:32:47.126Z,88.39
2019-06-26T01:33:47.140Z,88.62
2019-06-26T01:34:47.170Z,88.24
2019-06-26T01:35:47.169Z,88.78
2019-06-26T01:36:47.178Z,88.58
2019-06-26T01:37:47.196Z,88.87
2019-06-26T01:38:47.223Z,88.78
2019-06-26T01:39:47.223Z,88.68
2019-06-26T01:40:47.233Z,88.68
2019-06-26T01:41:47.253Z,89.17
2019-06-26T01:42:47.274Z,88.97
2019-06-26T01:43:47.272Z,89.26
2019-06-26T01:44:47.291Z,88.78
2019-06-26T01:45:47.310Z,89.17
2019-06-26T01:46:47.317Z,88.97
2019-06-26T01:47:47.328Z,88.97
2019-06-26T01:48:47.351Z,88.87
2019-06-26T01:49:47.361Z,89.55
2019-06-26T01:50:47.378Z,89.55
2019-06-26T01:51:47.390Z,89.36
2019-06-26T01:52:47.401Z,89.75
2019-06-26T01:53:47.416Z,89.65
2019-06-26T01:54:47.429Z,90.04
2019-06-26T01:55:47.454Z,89.75
2019-06-26T01:56:47.453Z,90.04
2019-06-26T01:57:47.464Z,90.23
2019-06-26T01:58:47.479Z,90.28
2019-06-26T01:59:47.496Z,90.19
2019-06-26T02:00:47.680Z,90.97
2019-06-26T02:01:47.521Z,90.28
2019-06-26T02:02:47.531Z,90.77
2019-06-26T02:03:47.551Z,90.97
2019-06-26T02:04:47.564Z,91.25
2019-06-26T02:05:47.595Z,91.25
2019-06-26T02:06:47.586Z,91.25
2019-06-26T02:07:47.607Z,91.35
2019-06-26T02:08:47.739Z,91.94
2019-06-26T02:09:47.627Z,92.03
2019-06-26T02:10:47.658Z,92.03
2019-06-26T02:11:47.665Z,91.94
2019-06-26T02:12:47.669Z,91.45
2019-06-26T02:13:47.679Z,91.55
2019-06-26T02:14:47.698Z,91.74
2019-06-26T02:15:47.722Z,91.84
2019-06-26T02:16:47.733Z,91.84
2019-06-26T02:17:47.737Z,91.94
2019-06-26T02:18:47.754Z,91.94
2019-06-26T02:19:47.765Z,92.13
2019-06-26T02:20:47.768Z,92.03
2019-06-26T02:21:47.788Z,91.94
2019-06-26T02:22:49.631Z,91.25
2019-06-26T02:23:47.821Z,92.03
2019-06-26T02:24:47.836Z,91.64
2019-06-26T02:25:47.845Z,91.84
2019-06-26T02:26:47.859Z,91.64
2019-06-26T02:27:47.868Z,91.74
2019-06-26T02:28:47.890Z,91.74
2019-06-26T02:29:47.897Z,91.84
2019-06-26T02:30:48.040Z,91.84
2019-06-26T02:31:47.923Z,92.08
2019-06-26T02:32:47.938Z,92.42
2019-06-26T02:33:47.955Z,92.28
2019-06-26T02:34:47.974Z,92.86
2019-06-26T02:35:47.987Z,92.76
2019-06-26T02:36:47.989Z,93.15
2019-06-26T02:37:48.013Z,93.01
2019-06-26T02:38:48.018Z,93.15
2019-06-26T02:39:48.033Z,93.15
2019-06-26T02:40:48.043Z,93.40
2019-06-26T02:41:48.066Z,93.69
2019-06-26T02:42:48.102Z,93.25
2019-06-26T02:43:48.124Z,93.73
2019-06-26T02:44:53.919Z,93.63
2019-06-26T02:45:48.113Z,93.49
2019-06-26T02:46:48.126Z,93.25
2019-06-26T02:47:48.139Z,93.73
2019-06-26T02:48:48.153Z,93.83
2019-06-26T02:49:48.175Z,94.37
2019-06-26T02:50:48.224Z,94.22
2019-06-26T02:51:48.199Z,94.85
2019-06-26T02:52:48.204Z,94.37
2019-06-26T02:53:48.219Z,94.76
2019-06-26T02:54:48.229Z,94.76
2019-06-26T02:55:48.242Z,95.04
2019-06-26T02:56:48.257Z,95.04
2019-06-26T02:57:48.269Z,95.04
2019-06-26T02:58:48.304Z,94.85
2019-06-26T02:59:48.310Z,94.46
2019-06-26T03:00:48.316Z,94.27
2019-06-26T03:01:48.327Z,94.37
2019-06-26T03:02:48.343Z,95.04
2019-06-26T03:03:48.353Z,95.43
2019-06-26T03:04:48.371Z,94.95
2019-06-26T03:05:48.377Z,95.14
2019-06-26T03:06:48.387Z,95.53
2019-06-26T03:07:48.421Z,94.95
2019-06-26T03:08:48.433Z,95.04
2019-06-26T03:09:48.427Z,95.53
2019-06-26T03:10:48.439Z,95.63
2019-06-26T03:11:48.458Z,95.43
2019-06-26T03:12:48.473Z,95.24
2019-06-26T03:13:48.480Z,95.63
2019-06-26T03:14:48.528Z,95.82
2019-06-26T03:15:50.644Z,95.53
2019-06-26T03:16:48.535Z,95.73
2019-06-26T03:17:55.358Z,95.82
2019-06-26T03:18:48.561Z,95.63
2019-06-26T03:19:48.568Z,95.73
2019-06-26T03:20:48.584Z,95.92
2019-06-26T03:21:48.600Z,96.01
2019-06-26T03:22:48.601Z,95.73
2019-06-26T03:23:48.614Z,95.73
2019-06-26T03:24:48.625Z,95.82
2019-06-26T03:25:48.642Z,95.92
2019-06-26T03:26:48.663Z,96.01
2019-06-26T03:27:48.664Z,96.11
2019-06-26T03:28:48.829Z,96.69
2019-06-26T03:29:48.689Z,96.45
2019-06-26T03:30:48.706Z,96.06
2019-06-26T03:31:48.719Z,96.26
2019-06-26T03:32:48.733Z,96.75
2019-06-26T03:33:48.772Z,97.03
2019-06-26T03:34:48.778Z,97.03
2019-06-26T03:35:48.778Z,96.84
2019-06-26T03:36:48.791Z,97.13
2019-06-26T03:37:48.802Z,96.84
2019-06-26T03:38:48.814Z,96.60
2019-06-26T03:39:48.826Z,96.94
2019-06-26T03:40:48.847Z,97.03
2019-06-26T03:41:48.848Z,97.13
2019-06-26T03:42:48.865Z,97.13
2019-06-26T03:43:48.944Z,96.84
2019-06-26T03:44:48.922Z,97.33
2019-06-26T03:45:48.914Z,97.23
2019-06-26T03:46:48.916Z,97.23
2019-06-26T03:47:48.929Z,97.81
2019-06-26T03:48:48.946Z,97.81
2019-06-26T03:49:48.953Z,97.61
2019-06-26T03:50:48.961Z,98.10
2019-06-26T03:51:48.999Z,98.20
2019-06-26T03:52:49.008Z,98.30
2019-06-26T03:53:49.015Z,98.68
2019-06-26T03:54:49.022Z,98.88
2019-06-26T03:55:49.044Z,98.78
2019-06-26T03:56:49.057Z,98.73
2019-06-26T03:57:49.062Z,99.17
2019-06-26T03:58:49.080Z,98.68
2019-06-26T03:59:49.096Z,98.97
2019-06-26T04:00:49.098Z,98.78
2019-06-26T04:01:49.127Z,98.78
2019-06-26T04:02:49.126Z,98.78
2019-06-26T04:03:49.146Z,98.58
2019-06-26T04:04:49.149Z,98.78
2019-06-26T04:05:49.166Z,98.88
2019-06-26T04:06:49.181Z,98.78
2019-06-26T04:07:49.195Z,98.10
2019-06-26T04:08:49.201Z,98.97
2019-06-26T04:09:49.219Z,98.68
2019-06-26T04:10:49.236Z,98.78
2019-06-26T04:11:49.303Z,98.88
2019-06-26T04:12:49.269Z,98.97
2019-06-26T04:13:49.334Z,98.97
2019-06-26T04:14:49.287Z,99.60
2019-06-26T04:15:51.032Z,99.55
2019-06-26T04:16:49.318Z,99.99
2019-06-26T04:17:49.326Z,99.99
2019-06-26T04:18:49.334Z,99.99
2019-06-26T04:19:49.347Z,99.99
2019-06-26T04:20:49.357Z,99.99
2019-06-26T04:21:49.375Z,99.99
2019-06-26T04:22:49.385Z,99.99
2019-06-26T04:23:49.401Z,99.99
2019-06-26T04:24:49.412Z,99.99
2019-06-26T04:25:49.433Z,99.99
2019-06-26T04:26:49.443Z,99.99
2019-06-26T04:27:49.455Z,99.99
2019-06-26T04:28:49.468Z,99.99
2019-06-26T04:29:49.534Z,99.99
2019-06-26T04:30:49.497Z,99.99
2019-06-26T04:31:49.511Z,99.99
2019-06-26T04:32:49.520Z,99.99
2019-06-26T04:33:49.533Z,99.99
2019-06-26T04:34:49.547Z,99.99
2019-06-26T04:35:49.570Z,99.99
2019-06-26T04:36:49.572Z,99.99
2019-06-26T04:37:49.589Z,99.99
2019-06-26T04:38:49.598Z,99.99
2019-06-26T04:39:49.614Z,99.99
2019-06-26T04:40:49.627Z,99.99
2019-06-26T04:41:49.636Z,99.99
2019-06-26T04:42:49.653Z,99.85
2019-06-26T04:43:49.663Z,99.99
2019-06-26T04:44:49.678Z,99.99
2019-06-26T04:45:58.195Z,99.85
2019-06-26T04:46:49.705Z,99.65
2019-06-26T04:47:49.719Z,99.65
2019-06-26T04:48:49.732Z,99.99
2019-06-26T04:49:49.743Z,99.99
2019-06-26T04:50:49.767Z,99.99
2019-06-26T04:51:49.769Z,99.99
2019-06-26T04:52:49.787Z,99.99
2019-06-26T04:53:49.797Z,99.99
2019-06-26T04:54:49.810Z,99.99
2019-06-26T04:55:49.824Z,99.99
2019-06-26T04:56:49.854Z,99.85
2019-06-26T04:57:49.849Z,99.99
2019-06-26T04:58:49.868Z,99.95
2019-06-26T04:59:49.875Z,99.99
2019-06-26T05:00:49.887Z,99.99
2019-06-26T05:01:49.907Z,99.70
2019-06-26T05:02:49.916Z,99.41
2019-06-26T05:03:49.957Z,99.80
2019-06-26T05:04:49.942Z,99.95
2019-06-26T05:05:49.955Z,99.85
2019-06-26T05:06:49.984Z,99.99
2019-06-26T05:07:50.004Z,99.75
2019-06-26T05:08:49.996Z,99.85
2019-06-26T05:09:50.013Z,99.99
2019-06-26T05:10:50.044Z,99.99
2019-06-26T05:11:50.034Z,99.99
2019-06-26T05:12:50.053Z,99.99
2019-06-26T05:13:50.065Z,99.99
2019-06-26T05:14:50.076Z,99.99
2019-06-26T05:15:50.093Z,99.99
2019-06-26T05:16:50.122Z,99.99
2019-06-26T05:17:50.117Z,99.99
2019-06-26T05:18:50.131Z,99.99
2019-06-26T05:19:50.147Z,99.99
2019-06-26T05:20:50.156Z,99.99
2019-06-26T05:21:50.169Z,99.99
2019-06-26T05:22:50.185Z,99.99
2019-06-26T05:23:50.198Z,99.99
2019-06-26T05:24:50.208Z,99.90
2019-06-26T05:25:50.229Z,99.12
2019-06-26T05:26:50.238Z,99.99
2019-06-26T05:27:50.249Z,99.51
2019-06-26T05:28:50.262Z,99.41
2019-06-26T05:29:50.278Z,99.32
2019-06-26T05:30:50.295Z,99.80
2019-06-26T05:31:50.313Z,99.12
2019-06-26T05:32:50.317Z,99.02
2019-06-26T05:33:50.360Z,97.96
2019-06-26T05:34:50.359Z,98.15
2019-06-26T05:35:50.359Z,97.71
2019-06-26T05:36:50.377Z,98.00
2019-06-26T05:37:50.386Z,97.81
2019-06-26T05:38:50.404Z,97.76
2019-06-26T05:39:53.811Z,97.86
2019-06-26T05:40:50.430Z,98.15
2019-06-26T05:41:50.439Z,97.76
2019-06-26T05:42:50.460Z,97.56
2019-06-26T05:43:50.495Z,97.76
2019-06-26T05:44:50.492Z,97.81
2019-06-26T05:45:50.500Z,97.61
2019-06-26T05:46:50.507Z,96.94
2019-06-26T05:47:50.526Z,97.28
2019-06-26T05:48:50.544Z,97.38
2019-06-26T05:49:50.549Z,97.47
2019-06-26T05:50:50.568Z,97.56
2019-06-26T05:51:50.625Z,97.76
2019-06-26T05:52:50.612Z,97.96
2019-06-26T05:53:50.605Z,98.15
2019-06-26T05:54:50.617Z,99.32
2019-06-26T05:55:50.638Z,99.02
2019-06-26T05:56:50.649Z,98.15
2019-06-26T05:57:50.661Z,98.68
2019-06-26T05:58:50.680Z,97.91
2019-06-26T05:59:50.694Z,97.81
2019-06-26T06:00:50.711Z,97.23
2019-06-26T06:01:50.713Z,98.00
2019-06-26T06:02:53.795Z,97.33
2019-06-26T06:03:50.735Z,97.42
2019-06-26T06:04:50.757Z,97.33
2019-06-26T06:05:50.792Z,97.42
2019-06-26T06:06:50.798Z,96.74
2019-06-26T06:07:50.799Z,97.13
2019-06-26T06:08:50.815Z,96.74
2019-06-26T06:09:50.832Z,97.42
2019-06-26T06:10:50.843Z,96.94
2019-06-26T06:11:50.855Z,97.13
2019-06-26T06:12:50.871Z,97.03
2019-06-26T06:13:50.883Z,97.23
2019-06-26T06:14:50.898Z,97.33
2019-06-26T06:15:50.912Z,97.13
2019-06-26T06:16:50.946Z,97.13
2019-06-26T06:17:50.940Z,97.13
2019-06-26T06:18:50.954Z,97.42
2019-06-26T06:19:50.962Z,97.33
2019-06-26T06:20:50.975Z,96.94
2019-06-26T06:21:50.998Z,97.37
2019-06-26T06:22:51.005Z,96.98
2019-06-26T06:23:51.023Z,96.31
2019-06-26T06:24:51.036Z,96.11
2019-06-26T06:25:51.049Z,96.84
2019-06-26T06:26:51.062Z,96.98
2019-06-26T06:27:51.078Z,96.69
2019-06-26T06:28:51.097Z,97.38
2019-06-26T06:29:51.100Z,97.71
2019-06-26T06:30:51.119Z,98.15
2019-06-26T06:31:51.130Z,97.91
2019-06-26T06:32:51.145Z,98.20
2019-06-26T06:33:51.159Z,97.81
2019-06-26T06:34:51.176Z,97.37
2019-06-26T06:35:51.188Z,96.31
2019-06-26T06:36:51.202Z,96.89
2019-06-26T06:37:51.211Z,96.21
2019-06-26T06:38:51.292Z,96.79
2019-06-26T06:39:51.246Z,96.79
2019-06-26T06:40:51.259Z,96.21
2019-06-26T06:41:51.272Z,95.82
2019-06-26T06:42:51.288Z,95.48
2019-06-26T06:43:51.305Z,94.95
2019-06-26T06:44:51.326Z,94.75
2019-06-26T06:45:51.333Z,95.62
2019-06-26T06:47:03.404Z,95.38
2019-06-26T06:47:51.369Z,95.09
2019-06-26T06:48:51.381Z,95.04
2019-06-26T06:49:51.399Z,94.70
2019-06-26T06:50:51.412Z,94.21
2019-06-26T06:51:51.438Z,94.80
2019-06-26T06:52:51.447Z,94.70
2019-06-26T06:53:51.458Z,93.82
2019-06-26T06:54:51.480Z,93.92
2019-06-26T06:55:51.497Z,93.24
2019-06-26T06:56:51.512Z,92.85
2019-06-26T06:57:51.530Z,92.71
2019-06-26T06:58:51.543Z,92.12
2019-06-26T06:59:51.555Z,90.95
2019-06-26T07:00:51.576Z,90.77
2019-06-26T07:01:51.590Z,91.59
2019-06-26T07:02:51.607Z,91.50
2019-06-26T07:03:51.633Z,91.59
2019-06-26T07:04:51.642Z,91.50
2019-06-26T07:05:51.669Z,91.40
2019-06-26T07:06:51.680Z,91.50
2019-06-26T07:07:51.700Z,91.69
2019-06-26T07:08:51.711Z,92.18
2019-06-26T07:09:51.725Z,91.98
2019-06-26T07:10:51.742Z,91.30
2019-06-26T07:11:51.781Z,91.59
2019-06-26T07:12:51.874Z,91.05
2019-06-26T07:13:51.783Z,91.01
2019-06-26T07:14:51.811Z,90.72
2019-06-26T07:15:51.824Z,90.81
2019-06-26T07:16:51.850Z,90.23
2019-06-26T07:17:51.860Z,89.89
2019-06-26T07:18:51.878Z,89.21
2019-06-26T07:19:51.900Z,88.82
2019-06-26T07:20:51.908Z,88.82
2019-06-26T07:21:51.927Z,88.53
2019-06-26T07:22:51.944Z,88.53
2019-06-26T07:23:51.962Z,88.72
2019-06-26T07:24:51.978Z,88.53
2019-06-26T07:25:52.021Z,88.33
2019-06-26T07:26:52.017Z,87.89
2019-06-26T07:27:52.034Z,87.60
2019-06-26T07:28:52.045Z,87.50
2019-06-26T07:29:52.073Z,87.79
2019-06-26T07:30:52.085Z,87.30
2019-06-26T07:31:52.101Z,87.60
2019-06-26T07:32:52.120Z,87.79
2019-06-26T07:33:55.414Z,87.30
2019-06-26T07:34:52.167Z,87.06
2019-06-26T07:35:52.173Z,86.08
2019-06-26T07:36:52.197Z,86.18
2019-06-26T07:37:52.205Z,86.47
2019-06-26T07:38:52.234Z,85.89
2019-06-26T07:39:52.239Z,85.25
2019-06-26T07:40:52.256Z,85.50
2019-06-26T07:41:52.281Z,86.14
2019-06-26T07:42:52.291Z,86.38
2019-06-26T07:43:52.307Z,86.33
2019-06-26T07:44:52.324Z,86.57
2019-06-26T07:45:52.349Z,86.57
2019-06-26T07:46:52.415Z,85.79
2019-06-26T07:47:52.377Z,85.31
2019-06-26T07:48:52.398Z,85.89
2019-06-26T07:49:52.416Z,86.08
2019-06-26T07:50:52.560Z,86.38
2019-06-26T07:51:52.462Z,85.89
2019-06-26T07:52:52.467Z,85.99
2019-06-26T07:53:52.486Z,85.60
2019-06-26T07:54:52.508Z,85.31
2019-06-26T07:55:52.565Z,85.60
2019-06-26T07:56:52.542Z,85.99
2019-06-26T07:57:52.566Z,86.53
2019-06-26T07:58:52.580Z,87.06
2019-06-26T07:59:52.596Z,86.18
2019-06-26T08:00:52.609Z,85.89
2019-06-26T08:01:52.631Z,85.25
2019-06-26T08:02:52.668Z,84.96
2019-06-26T08:03:52.671Z,84.71
2019-06-26T08:04:52.701Z,83.54
2019-06-26T08:05:52.705Z,83.64
2019-06-26T08:06:52.719Z,83.54
2019-06-26T08:07:52.741Z,83.25
2019-06-26T08:08:52.767Z,84.03
2019-06-26T08:09:52.776Z,83.93
2019-06-26T08:10:52.797Z,83.44
2019-06-26T08:11:52.812Z,83.69
2019-06-26T08:12:52.838Z,83.40
2019-06-26T08:13:52.859Z,82.96
2019-06-26T08:14:52.872Z,82.37
2019-06-26T08:15:52.892Z,82.03
2019-06-26T08:16:52.907Z,82.03
2019-06-26T08:18:00.713Z,81.38
2019-06-26T08:18:52.947Z,81.15
2019-06-26T08:19:52.962Z,81.67
2019-06-26T08:21:10.858Z,80.80
2019-06-26T08:21:52.996Z,80.90
2019-06-26T08:22:53.014Z,81.18
2019-06-26T08:23:53.092Z,80.90
2019-06-26T08:24:53.110Z,80.60
2019-06-26T08:25:53.088Z,79.92
2019-06-26T08:26:53.097Z,79.43
2019-06-26T08:27:53.115Z,79.24
2019-06-26T08:28:53.126Z,79.17
2019-06-26T08:29:53.145Z,78.79
2019-06-26T08:30:53.164Z,78.79
2019-06-26T08:31:53.186Z,78.20
2019-06-26T08:32:53.205Z,77.26
2019-06-26T08:33:53.227Z,77.56
2019-06-26T08:34:53.301Z,77.26
2019-06-26T08:35:53.275Z,77.17
2019-06-26T08:36:53.283Z,76.87
2019-06-26T08:38:08.886Z,76.97
2019-06-26T08:38:53.317Z,76.81
2019-06-26T08:39:53.350Z,75.29
2019-06-26T08:40:53.361Z,74.90
2019-06-26T08:41:53.382Z,75.39
2019-06-26T08:42:53.398Z,76.13
2019-06-26T08:43:53.418Z,76.42
2019-06-26T08:44:53.440Z,76.62
2019-06-26T08:45:53.459Z,76.52
2019-06-26T08:46:53.480Z,76.72
2019-06-26T08:47:53.496Z,76.87
2019-06-26T08:48:53.517Z,77.95
2019-06-26T08:49:53.532Z,77.75
2019-06-26T08:50:53.557Z,77.36
2019-06-26T08:51:53.578Z,77.01
2019-06-26T08:52:53.594Z,76.81
2019-06-26T08:53:53.614Z,77.07
2019-06-26T08:54:53.638Z,77.11
2019-06-26T08:55:53.654Z,76.32
2019-06-26T08:56:53.679Z,76.81
2019-06-26T08:57:53.692Z,77.07
2019-06-26T08:58:53.729Z,78.05
2019-06-26T08:59:53.745Z,78.20
2019-06-26T09:00:53.758Z,78.30
2019-06-26T09:01:53.778Z,77.95
2019-06-26T09:02:53.790Z,77.85
2019-06-26T09:03:53.813Z,77.40
2019-06-26T09:04:53.826Z,76.62
2019-06-26T09:05:53.849Z,77.25
2019-06-26T09:06:53.876Z,75.62
2019-06-26T09:07:53.911Z,73.80
2019-06-26T09:08:53.989Z,73.80
2019-06-26T09:09:53.934Z,73.90
2019-06-26T09:10:53.944Z,74.09
2019-06-26T09:11:53.964Z,73.99
2019-06-26T09:12:53.985Z,73.90
2019-06-26T09:13:54.011Z,74.15
2019-06-26T09:14:54.033Z,74.64
2019-06-26T09:15:54.044Z,74.64
2019-06-26T09:16:54.071Z,75.13
2019-06-26T09:17:54.086Z,75.33
2019-06-26T09:18:54.104Z,75.82
2019-06-26T09:19:54.124Z,75.52
2019-06-26T09:20:54.147Z,76.40
2019-06-26T09:21:54.164Z,76.60
2019-06-26T09:22:54.193Z,76.31
2019-06-26T09:23:54.203Z,75.62
2019-06-26T09:24:54.227Z,75.37
2019-06-26T09:25:54.245Z,74.77
2019-06-26T09:26:54.264Z,73.74
2019-06-26T09:27:54.283Z,73.31
2019-06-26T09:28:54.301Z,73.21
2019-06-26T09:29:54.439Z,72.66
2019-06-26T09:30:54.349Z,72.02
2019-06-26T09:31:54.370Z,71.23
2019-06-26T09:32:54.385Z,72.17
2019-06-26T09:33:54.403Z,72.56
2019-06-26T09:34:54.442Z,72.47
2019-06-26T09:35:54.439Z,71.03
2019-06-26T09:36:54.468Z,70.84
2019-06-26T09:37:54.496Z,70.80
2019-06-26T09:38:57.745Z,72.08
2019-06-26T09:39:54.518Z,71.33
2019-06-26T09:40:54.545Z,70.45
2019-06-26T09:41:54.563Z,70.39
2019-06-26T09:42:54.583Z,70.29
2019-06-26T09:43:54.601Z,69.18
2019-06-26T09:44:54.629Z,68.40
2019-06-26T09:45:54.639Z,68.10
2019-06-26T09:47:54.683Z,70.84
2019-06-26T09:48:54.701Z,70.64
2019-06-26T09:49:54.730Z,70.51
2019-06-26T09:50:54.744Z,70.74
2019-06-26T09:51:54.766Z,69.99
2019-06-26T09:52:54.786Z,68.26
2019-06-26T09:53:54.804Z,68.36
2019-06-26T09:54:54.824Z,67.48
2019-06-26T09:55:54.906Z,67.64
2019-06-26T09:56:54.888Z,67.97
2019-06-26T09:57:54.885Z,67.29
2019-06-26T09:58:54.903Z,67.12
2019-06-26T09:59:54.923Z,67.12
2019-06-26T10:00:54.951Z,66.86
2019-06-26T10:01:54.985Z,66.50
2019-06-26T10:02:54.985Z,64.86
2019-06-26T10:03:55.009Z,63.91
2019-06-26T10:04:55.025Z,62.73
2019-06-26T10:05:55.048Z,63.26
2019-06-26T10:06:55.070Z,64.73
2019-06-26T10:07:55.146Z,65.19
2019-06-26T10:08:55.105Z,65.84
2019-06-26T10:09:55.177Z,65.94
2019-06-26T10:10:55.146Z,65.78
2019-06-26T10:11:55.178Z,65.58
2019-06-26T10:12:55.189Z,64.83
2019-06-26T10:13:55.373Z,63.68
2019-06-26T10:14:55.235Z,63.10
2019-06-26T10:15:55.253Z,62.70
2019-06-26T10:16:55.273Z,62.93
2019-06-26T10:17:55.300Z,63.16
2019-06-26T10:19:09.051Z,64.31
2019-06-26T10:19:55.337Z,64.01
2019-06-26T10:20:55.354Z,64.21
2019-06-26T10:21:55.377Z,63.75
2019-06-26T10:22:55.394Z,62.96
2019-06-26T10:23:55.482Z,62.11
2019-06-26T10:24:55.434Z,62.01
2019-06-26T10:25:55.467Z,61.45
2019-06-26T10:26:55.481Z,60.69
2019-06-26T10:27:55.498Z,60.39
2019-06-26T10:28:55.537Z,60.03
2019-06-26T10:29:55.611Z,59.91
2019-06-26T10:30:55.559Z,60.20
2019-06-26T10:31:55.595Z,61.52
2019-06-26T10:32:55.645Z,61.68
2019-06-26T10:33:55.622Z,62.05
2019-06-26T10:34:55.657Z,62.34
2019-06-26T10:35:55.664Z,63.03
2019-06-26T10:36:55.689Z,63.03
2019-06-26T10:37:55.717Z,63.81
2019-06-26T10:38:55.727Z,62.66
2019-06-26T10:39:55.745Z,62.30
2019-06-26T10:40:55.790Z,62.24
2019-06-26T10:41:55.790Z,62.34
2019-06-26T10:42:55.820Z,61.78
2019-06-26T10:43:55.831Z,61.25
2019-06-26T10:44:55.849Z,59.88
2019-06-26T10:45:55.871Z,59.88
2019-06-26T10:46:55.895Z,60.44
2019-06-26T10:47:55.911Z,60.86
2019-06-26T10:48:55.933Z,59.97
2019-06-26T10:49:55.957Z,59.65
2019-06-26T10:50:58.853Z,59.75
2019-06-26T10:52:56.026Z,60.86
2019-06-26T10:53:56.044Z,59.61
2019-06-26T10:54:56.058Z,58.14
2019-06-26T10:55:56.088Z,58.26
2019-06-26T10:56:56.103Z,59.05
2019-06-26T10:57:56.122Z,58.99
2019-06-26T10:58:56.143Z,58.72
2019-06-26T10:59:56.228Z,57.84
2019-06-26T11:00:56.193Z,57.79
2019-06-26T11:01:56.218Z,56.98
2019-06-26T11:02:56.230Z,57.11
2019-06-26T11:03:56.246Z,55.63
2019-06-26T11:04:56.272Z,56.62
2019-06-26T11:05:56.288Z,55.46
2019-06-26T11:06:56.304Z,55.68
2019-06-26T11:07:56.327Z,54.72
2019-06-26T11:08:56.360Z,55.41
2019-06-26T11:09:56.370Z,55.68
2019-06-26T11:10:56.397Z,56.79
2019-06-26T11:11:56.426Z,58.04
2019-06-26T11:12:56.434Z,57.54
2019-06-26T11:13:56.460Z,57.54
2019-06-26T11:14:56.470Z,58.53
2019-06-26T11:15:56.492Z,57.70
2019-06-26T11:16:56.548Z,56.37
2019-06-26T11:17:56.639Z,56.48
2019-06-26T11:18:56.555Z,56.54
2019-06-26T11:19:56.575Z,58.16
2019-06-26T11:20:56.597Z,59.81
2019-06-26T11:21:56.613Z,59.71
2019-06-26T11:22:56.687Z,60.20
2019-06-26T11:23:56.658Z,58.95
2019-06-26T11:24:56.730Z,58.32
2019-06-26T11:25:56.700Z,57.19
2019-06-26T11:26:56.716Z,57.73
2019-06-26T11:27:56.741Z,58.56
2019-06-26T11:28:56.766Z,60.20
2019-06-26T11:29:56.784Z,60.57
2019-06-26T11:30:56.800Z,61.71
2019-06-26T11:31:56.822Z,61.48
2019-06-26T11:32:56.842Z,60.00
2019-06-26T11:33:56.862Z,59.44
2019-06-26T11:34:57.032Z,58.32
2019-06-26T11:35:56.902Z,57.19
2019-06-26T11:37:03.934Z,56.63
2019-06-26T11:37:56.965Z,55.96
2019-06-26T11:38:56.970Z,55.35
2019-06-26T11:39:56.985Z,56.04
2019-06-26T11:40:57.008Z,55.57
2019-06-26T11:41:57.022Z,55.05
2019-06-26T11:42:57.045Z,55.74
2019-06-26T11:43:57.067Z,55.64
2019-06-26T11:44:57.088Z,54.68
2019-06-26T11:45:57.109Z,53.75
2019-06-26T11:46:57.124Z,53.64
2019-06-26T11:47:57.147Z,52.78
2019-06-26T11:48:57.167Z,52.01
2019-06-26T11:50:00.335Z,51.25
2019-06-26T11:50:57.211Z,51.54
2019-06-26T11:51:57.251Z,51.54
2019-06-26T11:52:57.262Z,51.07
2019-06-26T11:53:59.078Z,51.10
2019-06-26T11:55:02.647Z,49.76
2019-06-26T11:55:57.313Z,48.94
2019-06-26T11:56:57.332Z,49.42
2019-06-26T11:57:57.359Z,50.09
2019-06-26T11:58:57.393Z,50.18
2019-06-26T11:59:57.409Z,50.29
2019-06-26T12:00:57.451Z,51.82
2019-06-26T12:01:57.443Z,51.13
2019-06-26T12:02:57.489Z,51.10
2019-06-26T12:03:57.484Z,51.79
2019-06-26T12:04:57.509Z,51.13
2019-06-26T12:06:11.871Z,51.03
2019-06-26T12:07:57.584Z,51.89
2019-06-26T12:08:57.590Z,51.72
2019-06-26T12:09:57.669Z,51.75
2019-06-26T12:10:57.637Z,51.72
2019-06-26T12:11:57.656Z,51.05
2019-06-26T12:12:57.672Z,51.07
2019-06-26T12:13:57.690Z,50.18
2019-06-26T12:14:57.718Z,50.21
2019-06-26T12:15:57.734Z,49.52
2019-06-26T12:16:57.770Z,48.94
2019-06-26T12:17:57.823Z,48.94
2019-06-26T12:18:57.814Z,49.24
2019-06-26T12:19:57.885Z,49.07
2019-06-26T12:20:57.851Z,48.27
2019-06-26T12:21:57.867Z,48.47
2019-06-26T12:22:57.883Z,47.80
2019-06-26T12:23:57.918Z,47.71
2019-06-26T12:24:57.932Z,47.61
2019-06-26T12:25:57.951Z,48.47
2019-06-26T12:26:57.981Z,49.74
2019-06-26T12:27:57.987Z,48.77
2019-06-26T12:28:58.028Z,48.13
2019-06-26T12:29:58.045Z,47.92
2019-06-26T12:30:58.054Z,47.13
2019-06-26T12:31:58.093Z,47.83
2019-06-26T12:33:03.505Z,47.90
2019-06-26T12:33:58.114Z,48.13
2019-06-26T12:34:58.209Z,47.90
2019-06-26T12:35:58.165Z,48.08
2019-06-26T12:36:58.192Z,46.91
2019-06-26T12:37:58.459Z,46.64
2019-06-26T12:38:58.229Z,45.86
2019-06-26T12:39:58.245Z,46.42
2019-06-26T12:40:58.268Z,47.66
2019-06-26T12:41:58.292Z,48.75
2019-06-26T12:42:58.321Z,48.35
2019-06-26T12:43:58.334Z,48.15
2019-06-26T12:44:58.354Z,49.10
2019-06-26T12:45:58.374Z,49.10
2019-06-26T12:46:58.411Z,48.60
2019-06-26T12:47:58.416Z,48.25
2019-06-26T12:48:58.440Z,48.75
2019-06-26T12:49:58.461Z,47.31
2019-06-26T12:50:58.487Z,47.88
2019-06-26T12:51:58.513Z,48.55
2019-06-26T12:52:58.528Z,47.96
2019-06-26T12:53:58.690Z,48.25
2019-06-26T12:54:58.576Z,48.25
2019-06-26T12:55:58.595Z,47.63